Terminal Aerodrome Forecast
Issued by NWS

Home | Current Version | Previous Version | Graphics & Text | Print | Product List | Glossary On
Versions: 1 2 3 4 5 6 7 8 9 10 11 12 13
758
FTUS42 KMHX 091736
TAFISO
TAF
KISO 091736Z 0918/1018 35009KT 3SM -DZ BR OVC007
     FM100000 30005KT 5SM -DZ BR OVC008
     FM100300 27006KT 5SM -DZ BR SCT008 OVC015
     FM100600 26007KT P6SM SCT015
     FM100900 28008KT P6SM SKC
      AMD LTD TO CLD VIS AND WIND=

USA.gov is the U.S. government's official web portal to all federal, state and local government web resources and services.